sensor_id;sensor_type;location;lat;lon;timestamp;pressure;altitude;pressure_sealevel;temperature;humidity
62011;BME280;47967;51.756;10.174;2023-05-10T04:01:24;98890.25;;;14.86;62.55
62011;BME280;47967;51.756;10.174;2023-05-10T04:05:27;98882.25;;;14.79;62.73
62011;BME280;47967;51.756;10.174;2023-05-10T04:09:29;98880.13;;;14.81;61.19
62011;BME280;47967;51.756;10.174;2023-05-10T04:13:32;98889.41;;;14.85;62.40
62011;BME280;47967;51.756;10.174;2023-05-10T04:17:36;98885.88;;;14.85;61.75
62011;BME280;47967;51.756;10.174;2023-05-10T04:21:39;98893.53;;;14.88;62.25
62011;BME280;47967;51.756;10.174;2023-05-10T04:25:41;98892.72;;;14.87;63.51
62011;BME280;47967;51.756;10.174;2023-05-10T04:29:44;98892.78;;;14.93;62.75
62011;BME280;47967;51.756;10.174;2023-05-10T04:33:47;98889.72;;;14.89;63.47
62011;BME280;47967;51.756;10.174;2023-05-10T04:37:51;98892.28;;;14.96;63.55
62011;BME280;47967;51.756;10.174;2023-05-10T04:41:54;98895.91;;;15.01;64.60
62011;BME280;47967;51.756;10.174;2023-05-10T04:45:58;98898.03;;;14.99;64.97
62011;BME280;47967;51.756;10.174;2023-05-10T04:50:03;98907.25;;;14.98;65.05
62011;BME280;47967;51.756;10.174;2023-05-10T04:54:06;98913.44;;;14.94;64.72
62011;BME280;47967;51.756;10.174;2023-05-10T04:58:08;98911.63;;;14.99;64.43
62011;BME280;47967;51.756;10.174;2023-05-10T05:02:11;98913.28;;;15.00;64.78
62011;BME280;47967;51.756;10.174;2023-05-10T05:06:15;98912.63;;;14.93;65.48
62011;BME280;47967;51.756;10.174;2023-05-10T05:10:17;98918.13;;;14.98;65.65
62011;BME280;47967;51.756;10.174;2023-05-10T05:14:20;98923.22;;;14.95;65.97
62011;BME280;47967;51.756;10.174;2023-05-10T05:18:23;98929.06;;;14.86;66.16
62011;BME280;47967;51.756;10.174;2023-05-10T05:22:27;98934.03;;;14.72;66.74
62011;BME280;47967;51.756;10.174;2023-05-10T05:26:37;98945.13;;;14.54;67.01
62011;BME280;47967;51.756;10.174;2023-05-10T05:30:40;98950.97;;;14.46;67.36
62011;BME280;47967;51.756;10.174;2023-05-10T05:34:44;98957.72;;;14.43;68.04
62011;BME280;47967;51.756;10.174;2023-05-10T05:38:46;98960.16;;;14.45;68.57
62011;BME280;47967;51.756;10.174;2023-05-10T05:42:50;98968.69;;;14.36;69.49
62011;BME280;47967;51.756;10.174;2023-05-10T05:46:53;98977.09;;;14.35;69.52
62011;BME280;47967;51.756;10.174;2023-05-10T05:50:56;98980.53;;;14.30;70.03
62011;BME280;47967;51.756;10.174;2023-05-10T05:54:58;98988.78;;;14.06;70.61
62011;BME280;47967;51.756;10.174;2023-05-10T05:59:02;98994.56;;;14.10;71.24
62011;BME280;47967;51.756;10.174;2023-05-10T06:03:05;99001.06;;;14.09;72.02
62011;BME280;47967;51.756;10.174;2023-05-10T06:07:08;99011.59;;;14.22;71.48
62011;BME280;47967;51.756;10.174;2023-05-10T06:11:11;99017.31;;;14.38;71.59
62011;BME280;47967;51.756;10.174;2023-05-10T06:15:14;99017.03;;;14.51;72.27
62011;BME280;47967;51.756;10.174;2023-05-10T06:19:18;99025.78;;;14.70;71.54
62011;BME280;47967;51.756;10.174;2023-05-10T06:23:20;99026.78;;;14.81;71.21
62011;BME280;47967;51.756;10.174;2023-05-10T06:27:23;99032.03;;;14.71;70.35
62011;BME280;47967;51.756;10.174;2023-05-10T06:31:27;99027.84;;;14.80;70.67
62011;BME280;47967;51.756;10.174;2023-05-10T06:35:30;99027.75;;;14.92;71.36
62011;BME280;47967;51.756;10.174;2023-05-10T06:39:34;99035.66;;;15.11;71.51
62011;BME280;47967;51.756;10.174;2023-05-10T06:43:37;99035.16;;;15.14;71.57
62011;BME280;47967;51.756;10.174;2023-05-10T06:47:42;99034.00;;;15.27;71.93
62011;BME280;47967;51.756;10.174;2023-05-10T06:51:45;99039.81;;;15.35;71.80
62011;BME280;47967;51.756;10.174;2023-05-10T06:55:49;99047.88;;;15.47;71.29
62011;BME280;47967;51.756;10.174;2023-05-10T06:59:51;99049.44;;;15.60;71.12
62011;BME280;47967;51.756;10.174;2023-05-10T07:03:55;99051.41;;;15.65;70.38
62011;BME280;47967;51.756;10.174;2023-05-10T07:07:58;99056.91;;;15.70;71.54
62011;BME280;47967;51.756;10.174;2023-05-10T07:12:01;99061.81;;;15.73;72.06
62011;BME280;47967;51.756;10.174;2023-05-10T07:16:04;99056.91;;;15.70;72.63
62011;BME280;47967;51.756;10.174;2023-05-10T07:20:09;99066.38;;;15.84;72.45
62011;BME280;47967;51.756;10.174;2023-05-10T07:24:12;99066.81;;;15.98;71.61
62011;BME280;47967;51.756;10.174;2023-05-10T07:28:15;99071.06;;;16.11;71.82
62011;BME280;47967;51.756;10.174;2023-05-10T07:32:18;99072.00;;;16.22;71.65
62011;BME280;47967;51.756;10.174;2023-05-10T07:36:22;99079.38;;;16.49;71.45
62011;BME280;47967;51.756;10.174;2023-05-10T07:40:24;99086.28;;;16.35;71.61
62011;BME280;47967;51.756;10.174;2023-05-10T07:44:27;99087.00;;;16.25;72.11
62011;BME280;47967;51.756;10.174;2023-05-10T07:48:29;99090.34;;;16.10;72.85
62011;BME280;47967;51.756;10.174;2023-05-10T07:52:33;99092.50;;;15.86;73.81
62011;BME280;47967;51.756;10.174;2023-05-10T07:56:36;99095.47;;;16.06;73.89
62011;BME280;47967;51.756;10.174;2023-05-10T08:00:39;99097.47;;;16.16;73.75
62011;BME280;47967;51.756;10.174;2023-05-10T08:04:42;99096.56;;;16.27;72.32
62011;BME280;47967;51.756;10.174;2023-05-10T08:08:46;99104.38;;;16.46;72.15
62011;BME280;47967;51.756;10.174;2023-05-10T08:12:51;99106.81;;;16.20;72.55
62011;BME280;47967;51.756;10.174;2023-05-10T08:16:53;99113.38;;;16.24;73.39
62011;BME280;47967;51.756;10.174;2023-05-10T08:20:56;99117.03;;;16.35;73.66
62011;BME280;47967;51.756;10.174;2023-05-10T08:25:00;99119.88;;;16.23;74.72
62011;BME280;47967;51.756;10.174;2023-05-10T08:29:03;99123.63;;;16.39;74.25
62011;BME280;47967;51.756;10.174;2023-05-10T08:33:05;99124.47;;;16.67;73.89
62011;BME280;47967;51.756;10.174;2023-05-10T08:37:08;99136.03;;;16.79;73.88
62011;BME280;47967;51.756;10.174;2023-05-10T08:41:13;99142.75;;;16.94;73.45
62011;BME280;47967;51.756;10.174;2023-05-10T08:45:16;99144.53;;;16.83;74.11
62011;BME280;47967;51.756;10.174;2023-05-10T08:49:21;99146.28;;;17.22;73.10
62011;BME280;47967;51.756;10.174;2023-05-10T08:53:24;99150.22;;;17.69;72.71
62011;BME280;47967;51.756;10.174;2023-05-10T08:57:28;99158.66;;;18.10;70.54
62011;BME280;47967;51.756;10.174;2023-05-10T09:01:31;99157.09;;;18.24;70.32
62011;BME280;47967;51.756;10.174;2023-05-10T09:05:36;99166.94;;;18.26;70.35
62011;BME280;47967;51.756;10.174;2023-05-10T09:09:38;99175.97;;;18.31;70.94
62011;BME280;47967;51.756;10.174;2023-05-10T09:13:42;99180.19;;;18.70;68.94
62011;BME280;47967;51.756;10.174;2023-05-10T09:17:46;99189.22;;;18.65;69.41
62011;BME280;47967;51.756;10.174;2023-05-10T09:21:49;99186.09;;;19.15;68.72
62011;BME280;47967;51.756;10.174;2023-05-10T09:26:01;99185.53;;;19.02;64.78
62011;BME280;47967;51.756;10.174;2023-05-10T09:30:08;99189.91;;;19.09;64.38
62011;BME280;47967;51.756;10.174;2023-05-10T09:34:15;99190.38;;;18.80;65.59
62011;BME280;47967;51.756;10.174;2023-05-10T09:38:19;99185.19;;;18.88;64.52
62011;BME280;47967;51.756;10.174;2023-05-10T09:42:22;99191.97;;;18.70;66.01
62011;BME280;47967;51.756;10.174;2023-05-10T09:46:26;99194.84;;;19.07;66.65
62011;BME280;47967;51.756;10.174;2023-05-10T09:50:29;99207.91;;;18.94;66.27
62011;BME280;47967;51.756;10.174;2023-05-10T09:54:33;99203.13;;;18.64;66.45
62011;BME280;47967;51.756;10.174;2023-05-10T09:58:36;99207.28;;;18.18;67.24
62011;BME280;47967;51.756;10.174;2023-05-10T10:02:40;99207.09;;;18.30;68.00
62011;BME280;47967;51.756;10.174;2023-05-10T10:06:43;99208.72;;;18.26;68.50
62011;BME280;47967;51.756;10.174;2023-05-10T10:10:46;99217.53;;;18.38;68.05
62011;BME280;47967;51.756;10.174;2023-05-10T10:14:49;99212.47;;;18.15;67.23
62011;BME280;47967;51.756;10.174;2023-05-10T10:18:53;99215.13;;;17.99;67.58
62011;BME280;47967;51.756;10.174;2023-05-10T10:22:56;99220.31;;;17.36;69.88
62011;BME280;47967;51.756;10.174;2023-05-10T10:27:07;99224.19;;;17.45;70.97
62011;BME280;47967;51.756;10.174;2023-05-10T10:31:17;99227.06;;;17.60;69.18
62011;BME280;47967;51.756;10.174;2023-05-10T10:35:24;99235.34;;;17.38;70.30
62011;BME280;47967;51.756;10.174;2023-05-10T10:39:27;99236.69;;;17.36;71.82
62011;BME280;47967;51.756;10.174;2023-05-10T10:43:30;99248.28;;;17.53;71.16
62011;BME280;47967;51.756;10.174;2023-05-10T10:47:33;99239.91;;;17.33;71.51
62011;BME280;47967;51.756;10.174;2023-05-10T10:51:38;99247.41;;;17.20;72.19
62011;BME280;47967;51.756;10.174;2023-05-10T10:55:47;99243.22;;;17.35;72.47
62011;BME280;47967;51.756;10.174;2023-05-10T10:59:50;99247.19;;;17.54;71.94
62011;BME280;47967;51.756;10.174;2023-05-10T11:04:17;99238.34;;;18.55;67.36
62011;BME280;47967;51.756;10.174;2023-05-10T11:08:27;99247.41;;;19.40;65.34
62011;BME280;47967;51.756;10.174;2023-05-10T11:12:29;99245.47;;;19.40;61.92
62011;BME280;47967;51.756;10.174;2023-05-10T11:16:41;99239.47;;;20.21;60.79
62011;BME280;47967;51.756;10.174;2023-05-10T11:20:43;99241.19;;;20.82;58.83
62011;BME280;47967;51.756;10.174;2023-05-10T11:24:57;99243.59;;;20.99;58.87
62011;BME280;47967;51.756;10.174;2023-05-10T11:29:00;99241.97;;;21.83;55.72
62011;BME280;47967;51.756;10.174;2023-05-10T11:33:06;99249.38;;;22.12;54.86
62011;BME280;47967;51.756;10.174;2023-05-10T11:37:08;99244.88;;;22.21;54.63
62011;BME280;47967;51.756;10.174;2023-05-10T11:41:12;99241.03;;;22.22;54.70
62011;BME280;47967;51.756;10.174;2023-05-10T11:45:17;99247.47;;;22.36;55.54
62011;BME280;47967;51.756;10.174;2023-05-10T11:49:20;99249.50;;;22.98;53.64
62011;BME280;47967;51.756;10.174;2023-05-10T11:53:25;99240.25;;;23.52;53.20
62011;BME280;47967;51.756;10.174;2023-05-10T11:57:30;99244.91;;;23.70;51.41
62011;BME280;47967;51.756;10.174;2023-05-10T12:01:33;99245.53;;;23.48;51.67
62011;BME280;47967;51.756;10.174;2023-05-10T12:05:35;99244.72;;;23.28;51.86
62011;BME280;47967;51.756;10.174;2023-05-10T12:09:42;99244.06;;;22.50;52.14
62011;BME280;47967;51.756;10.174;2023-05-10T12:13:46;99251.44;;;22.25;53.24
62011;BME280;47967;51.756;10.174;2023-05-10T12:17:50;99249.19;;;22.03;53.17
62011;BME280;47967;51.756;10.174;2023-05-10T12:21:53;99262.41;;;21.66;53.77
62011;BME280;47967;51.756;10.174;2023-05-10T12:26:01;99268.63;;;21.37;54.59
62011;BME280;47967;51.756;10.174;2023-05-10T12:30:07;99273.22;;;20.92;56.23
62011;BME280;47967;51.756;10.174;2023-05-10T12:34:10;99277.56;;;20.07;59.40
62011;BME280;47967;51.756;10.174;2023-05-10T12:38:25;99292.28;;;19.70;61.12
62011;BME280;47967;51.756;10.174;2023-05-10T12:42:30;99295.31;;;19.78;62.01
62011;BME280;47967;51.756;10.174;2023-05-10T12:46:34;99292.06;;;19.87;62.16
62011;BME280;47967;51.756;10.174;2023-05-10T12:50:37;99287.69;;;20.17;61.43
62011;BME280;47967;51.756;10.174;2023-05-10T12:54:39;99291.78;;;20.09;60.69
62011;BME280;47967;51.756;10.174;2023-05-10T12:58:42;99301.06;;;19.72;62.03
62011;BME280;47967;51.756;10.174;2023-05-10T13:02:50;99295.59;;;19.82;61.89
62011;BME280;47967;51.756;10.174;2023-05-10T13:06:53;99297.00;;;20.00;61.07
62011;BME280;47967;51.756;10.174;2023-05-10T13:10:57;99301.31;;;20.37;61.79
62011;BME280;47967;51.756;10.174;2023-05-10T13:14:59;99302.31;;;20.88;58.97
62011;BME280;47967;51.756;10.174;2023-05-10T13:19:03;99300.94;;;21.46;57.45
62011;BME280;47967;51.756;10.174;2023-05-10T13:23:06;99295.56;;;22.10;56.42
62011;BME280;47967;51.756;10.174;2023-05-10T13:27:09;99303.38;;;22.27;56.50
62011;BME280;47967;51.756;10.174;2023-05-10T13:31:11;99301.28;;;22.13;55.88
62011;BME280;47967;51.756;10.174;2023-05-10T13:35:15;99301.34;;;22.37;54.15
62011;BME280;47967;51.756;10.174;2023-05-10T13:39:18;99296.84;;;22.17;53.37
62011;BME280;47967;51.756;10.174;2023-05-10T13:43:20;99293.06;;;22.13;54.18
62011;BME280;47967;51.756;10.174;2023-05-10T13:47:23;99294.59;;;22.25;51.99
62011;BME280;47967;51.756;10.174;2023-05-10T13:51:27;99295.53;;;22.44;51.79
62011;BME280;47967;51.756;10.174;2023-05-10T13:55:29;99289.72;;;22.16;52.12
62011;BME280;47967;51.756;10.174;2023-05-10T13:59:32;99295.59;;;22.04;52.43
62011;BME280;47967;51.756;10.174;2023-05-10T14:03:35;99288.84;;;22.21;53.07
62011;BME280;47967;51.756;10.174;2023-05-10T14:07:39;99283.59;;;22.25;51.62
62011;BME280;47967;51.756;10.174;2023-05-10T14:11:42;99279.19;;;22.23;51.97
62011;BME280;47967;51.756;10.174;2023-05-10T14:15:46;99290.34;;;22.67;50.57
62011;BME280;47967;51.756;10.174;2023-05-10T14:19:48;99282.97;;;23.06;50.56
62011;BME280;47967;51.756;10.174;2023-05-10T14:23:52;99280.28;;;23.25;49.36
62011;BME280;47967;51.756;10.174;2023-05-10T14:27:56;99282.69;;;23.07;47.90
62011;BME280;47967;51.756;10.174;2023-05-10T14:31:59;99280.28;;;23.25;47.63
62011;BME280;47967;51.756;10.174;2023-05-10T14:36:02;99281.47;;;23.57;48.08
62011;BME280;47967;51.756;10.174;2023-05-10T14:40:08;99277.59;;;23.58;48.32
62011;BME280;47967;51.756;10.174;2023-05-10T14:44:11;99275.97;;;23.18;49.23
62011;BME280;47967;51.756;10.174;2023-05-10T14:48:13;99283.97;;;23.15;49.13
62011;BME280;47967;51.756;10.174;2023-05-10T14:52:18;99280.28;;;23.25;48.89
62011;BME280;47967;51.756;10.174;2023-05-10T14:56:22;99289.44;;;22.96;49.27
62011;BME280;47967;51.756;10.174;2023-05-10T15:00:25;99286.91;;;23.24;46.95
62011;BME280;47967;51.756;10.174;2023-05-10T15:04:28;99295.91;;;23.48;46.52
62011;BME280;47967;51.756;10.174;2023-05-10T15:08:31;99298.53;;;23.15;48.10
62011;BME280;47967;51.756;10.174;2023-05-10T15:12:35;99294.34;;;22.99;49.34
62011;BME280;47967;51.756;10.174;2023-05-10T15:16:37;99295.75;;;22.96;49.87
62011;BME280;47967;51.756;10.174;2023-05-10T15:20:40;99294.66;;;22.97;49.46
62011;BME280;47967;51.756;10.174;2023-05-10T15:24:43;99296.72;;;23.06;49.32
62011;BME280;47967;51.756;10.174;2023-05-10T15:28:46;99290.19;;;23.01;48.72
62011;BME280;47967;51.756;10.174;2023-05-10T15:32:49;99294.34;;;23.42;47.54
62011;BME280;47967;51.756;10.174;2023-05-10T15:36:52;99295.47;;;23.22;48.12
62011;BME280;47967;51.756;10.174;2023-05-10T15:40:56;99292.94;;;23.01;48.26
62011;BME280;47967;51.756;10.174;2023-05-10T15:45:00;99306.28;;;23.38;47.99
62011;BME280;47967;51.756;10.174;2023-05-10T15:49:02;99309.66;;;23.87;48.41
62011;BME280;47967;51.756;10.174;2023-05-10T15:53:05;99313.69;;;23.75;47.05
62011;BME280;47967;51.756;10.174;2023-05-10T15:57:08;99315.53;;;23.80;47.35
62011;BME280;47967;51.756;10.174;2023-05-10T16:01:12;99318.91;;;23.77;47.07
62011;BME280;47967;51.756;10.174;2023-05-10T16:05:14;99320.75;;;23.24;46.72
62011;BME280;47967;51.756;10.174;2023-05-10T16:09:17;99326.59;;;22.69;48.98
62011;BME280;47967;51.756;10.174;2023-05-10T16:13:20;99336.00;;;22.33;50.86
62011;BME280;47967;51.756;10.174;2023-05-10T16:17:24;99346.31;;;21.27;54.37
62011;BME280;47967;51.756;10.174;2023-05-10T16:21:28;99354.22;;;20.12;58.40
62011;BME280;47967;51.756;10.174;2023-05-10T16:25:32;99357.97;;;19.64;60.73
62011;BME280;47967;51.756;10.174;2023-05-10T16:29:35;99356.84;;;19.40;62.47
62011;BME280;47967;51.756;10.174;2023-05-10T16:33:39;99367.16;;;19.27;62.43
62011;BME280;47967;51.756;10.174;2023-05-10T16:37:41;99371.28;;;18.77;64.53
62011;BME280;47967;51.756;10.174;2023-05-10T16:41:44;99382.19;;;18.77;65.49
62011;BME280;47967;51.756;10.174;2023-05-10T16:45:46;99377.25;;;18.73;65.84
62011;BME280;47967;51.756;10.174;2023-05-10T16:49:50;99373.09;;;18.61;66.03
62011;BME280;47967;51.756;10.174;2023-05-10T16:53:53;99380.41;;;18.55;66.57
62011;BME280;47967;51.756;10.174;2023-05-10T16:57:56;99389.66;;;18.49;66.75
62011;BME280;47967;51.756;10.174;2023-05-10T17:02:01;99383.59;;;18.42;66.85
62011;BME280;47967;51.756;10.174;2023-05-10T17:06:05;99395.00;;;18.33;68.66
62011;BME280;47967;51.756;10.174;2023-05-10T17:10:09;99390.41;;;18.39;69.27
62011;BME280;47967;51.756;10.174;2023-05-10T17:14:12;99393.16;;;18.44;70.38
62011;BME280;47967;51.756;10.174;2023-05-10T17:18:14;99391.53;;;18.43;70.41
62011;BME280;47967;51.756;10.174;2023-05-10T17:22:18;99392.06;;;18.40;70.40
62011;BME280;47967;51.756;10.174;2023-05-10T17:26:21;99401.28;;;18.34;70.93
62011;BME280;47967;51.756;10.174;2023-05-10T17:30:23;99400.06;;;18.19;68.23
62011;BME280;47967;51.756;10.174;2023-05-10T17:34:29;99410.81;;;17.99;67.26
62011;BME280;47967;51.756;10.174;2023-05-10T17:38:34;99401.38;;;18.12;67.31
62011;BME280;47967;51.756;10.174;2023-05-10T17:42:37;99406.06;;;18.16;67.87
62011;BME280;47967;51.756;10.174;2023-05-10T17:46:40;99408.22;;;18.14;71.62
62011;BME280;47967;51.756;10.174;2023-05-10T17:50:42;99410.53;;;18.00;72.24
62011;BME280;47967;51.756;10.174;2023-05-10T17:54:46;99410.50;;;17.95;73.00
62011;BME280;47967;51.756;10.174;2023-05-10T17:58:49;99418.88;;;17.88;73.29
62011;BME280;47967;51.756;10.174;2023-05-10T18:02:51;99424.47;;;17.76;73.86
62011;BME280;47967;51.756;10.174;2023-05-10T18:06:54;99426.00;;;17.67;73.81
62011;BME280;47967;51.756;10.174;2023-05-10T18:11:03;99426.00;;;17.67;74.18
62011;BME280;47967;51.756;10.174;2023-05-10T18:15:06;99430.44;;;17.51;74.20
62011;BME280;47967;51.756;10.174;2023-05-10T18:19:09;99433.06;;;17.41;74.59
62011;BME280;47967;51.756;10.174;2023-05-10T18:23:11;99432.06;;;17.25;73.91
62011;BME280;47967;51.756;10.174;2023-05-10T18:27:18;99433.59;;;17.21;73.65
62011;BME280;47967;51.756;10.174;2023-05-10T18:31:20;99436.47;;;17.09;74.72
62011;BME280;47967;51.756;10.174;2023-05-10T18:35:24;99447.72;;;16.95;75.71
62011;BME280;47967;51.756;10.174;2023-05-10T18:39:27;99444.47;;;16.81;76.73
62011;BME280;47967;51.756;10.174;2023-05-10T18:43:30;99456.03;;;16.72;77.26
62011;BME280;47967;51.756;10.174;2023-05-10T18:47:34;99454.81;;;16.62;77.56
62011;BME280;47967;51.756;10.174;2023-05-10T18:51:37;99466.88;;;16.49;78.00
62011;BME280;47967;51.756;10.174;2023-05-10T18:55:39;99462.88;;;16.57;78.51
62011;BME280;47967;51.756;10.174;2023-05-10T18:59:44;99467.44;;;16.52;78.36
62011;BME280;47967;51.756;10.174;2023-05-10T19:03:46;99476.94;;;16.49;78.42
62011;BME280;47967;51.756;10.174;2023-05-10T19:07:49;99482.53;;;16.42;79.58
62011;BME280;47967;51.756;10.174;2023-05-10T19:11:51;99487.16;;;16.42;79.92
62011;BME280;47967;51.756;10.174;2023-05-10T19:16:05;99483.50;;;16.36;80.40
62011;BME280;47967;51.756;10.174;2023-05-10T19:20:13;99481.25;;;16.33;80.55
62011;BME280;47967;51.756;10.174;2023-05-10T19:24:15;99490.03;;;16.35;80.16
62011;BME280;47967;51.756;10.174;2023-05-10T19:28:19;99499.44;;;16.27;80.33
62011;BME280;47967;51.756;10.174;2023-05-10T19:32:23;99487.28;;;16.18;80.55
62011;BME280;47967;51.756;10.174;2023-05-10T19:36:26;99494.19;;;16.09;80.01
62011;BME280;47967;51.756;10.174;2023-05-10T19:40:28;99493.59;;;16.07;80.68
62011;BME280;47967;51.756;10.174;2023-05-10T19:44:31;99499.63;;;16.09;80.07
62011;BME280;47967;51.756;10.174;2023-05-10T19:48:35;99499.34;;;15.93;80.12
62011;BME280;47967;51.756;10.174;2023-05-10T19:52:37;99494.56;;;16.00;80.27
62011;BME280;47967;51.756;10.174;2023-05-10T19:56:40;99506.78;;;15.98;80.30
62011;BME280;47967;51.756;10.174;2023-05-10T20:00:43;99500.63;;;15.79;80.56
62011;BME280;47967;51.756;10.174;2023-05-10T20:04:47;99500.38;;;15.80;80.38
62011;BME280;47967;51.756;10.174;2023-05-10T20:08:50;99502.31;;;15.68;79.76
62011;BME280;47967;51.756;10.174;2023-05-10T20:12:52;99496.09;;;15.56;79.93
62011;BME280;47967;51.756;10.174;2023-05-10T20:16:55;99498.09;;;15.48;80.43
62011;BME280;47967;51.756;10.174;2023-05-10T20:20:59;99510.63;;;15.61;80.62
62011;BME280;47967;51.756;10.174;2023-05-10T20:25:02;99502.25;;;15.51;80.62
62011;BME280;47967;51.756;10.174;2023-05-10T20:29:05;99505.91;;;15.45;81.45
62011;BME280;47967;51.756;10.174;2023-05-10T20:33:07;99504.38;;;15.49;81.51
62011;BME280;47967;51.756;10.174;2023-05-10T20:37:11;99499.88;;;15.43;80.86
62011;BME280;47967;51.756;10.174;2023-05-10T20:41:14;99497.06;;;15.37;81.02
62011;BME280;47967;51.756;10.174;2023-05-10T20:45:17;99508.19;;;15.36;81.35
62011;BME280;47967;51.756;10.174;2023-05-10T20:49:19;99507.47;;;15.29;81.64
62011;BME280;47967;51.756;10.174;2023-05-10T20:53:23;99495.53;;;15.42;81.54
62011;BME280;47967;51.756;10.174;2023-05-10T20:57:26;99492.78;;;15.53;81.55
